Carlos Paz

Recruteur - Defensa y Justicia
3 Déc 2028
Dimanche
Processus

Personnalité

Adaptabilité (3) Ambition (14) Controverse (12) Loyauté (4) Pression (11) Professionnalisme (7) Sportivité (14) Tempérament (1)

Profil

Style d'entraînement Démocratique
Diplôme Continental Pro
Détermination 6
Gestion des joueurs 7
Motivation 7
Discipline 8
Satisfaction professionnelle
88%
Fatigue
0%
Rôle Recruteur
Salaire 41.9K p/s
Contrat 14.03.2029

Performance

Comportement Bon
Efficacité de l'entraînement
44%
Développement des joueurs
55%
Prévention des blessures
55%
Mise en place tactique
60%

Événements récents

A participé à une réunion de recrutement 7j
A participé à une réunion de recrutement 14j
A participé à une réunion de recrutement 21j
A participé à une réunion de recrutement 28j
A participé à une réunion de recrutement 35j
A participé à une réunion de recrutement 42j
A participé à une réunion de recrutement 49j
A participé à une réunion de recrutement 56j

Suivi en cours

63
Joueur Club Statut Capacité Confiance Observé Dernière observation Dernier vote
Santiago Cáceres All Boys Négociation 107 / 105 72% 1 01.12.2028 -
Joe Gelhardt Hull City Actif 138 / 118 40% 1 28.11.2026 -
Hidemasa Morita Hull City Actif 128 / 137 40% 1 26.11.2026 -
Bongani Zungu Ajax Cape Town Actif 120 / 134 40% 1 24.11.2026 -
Isaac Matondo Koper Actif 99 / 110 40% 1 23.11.2026 -
Josh Coburn Millwall Actif 106 / 127 40% 1 23.11.2026 -
Petar Stanić Ludogorets Actif 137 / 134 40% 1 20.11.2026 -
Jesus Ferreira Seattle Sounders Actif 115 / 134 40% 1 17.11.2026 -
Bienvenue Kanakimana Zbrojovka Brno Actif 127 / 123 40% 1 17.11.2026 -
Tiago Pucciarelli IF Elfsborg Actif 104 / 94 40% 1 14.11.2026 -
Aune Heggebø West Bromwich Albion Actif 122 / 134 40% 1 13.11.2026 -
Manu Morlanes Mallorca Actif 149 / 145 40% 1 13.11.2026 -
Jack McGlynn Stoke City Actif 131 / 138 40% 1 12.11.2026 -
Matej Trusa DAC Dunajska Streda Actif 102 / 123 40% 1 08.11.2026 -
Jáder Valencia Deportes Tolima Actif 106 / 107 40% 1 08.11.2026 -
Reda Khadra Qarabag Actif 117 / 130 40% 2 06.11.2026 -
Antony Alonso Deportivo Riestra Actif 127 / 124 40% 1 05.11.2026 -
Alex Luna Instituto Actif 125 / 128 40% 1 04.11.2026 -
Edu Expósito Espanyol Actif 137 / 139 40% 1 03.11.2026 -
Marco Pašalić Orlando City Actif 125 / 138 40% 2 01.11.2026 -
Armstrong Oko-Flex Levski Actif 108 / 131 40% 1 31.10.2026 -
Alexis Alégué Zbrojovka Brno Actif 119 / 129 40% 1 30.10.2026 -
Finn Azaz Southampton Actif 128 / 136 40% 1 28.10.2026 -
Matías Contrera Hrvatski Dragovoljac Actif 96 / 109 40% 1 26.10.2026 -
Alexander Aravena Portland Timbers Actif 121 / 118 40% 1 26.10.2026 -
Sorba Thomas Stoke City Actif 137 / 117 40% 1 23.10.2026 -
Tadeo Allende Inter Miami CF Actif 134 / 123 40% 2 21.10.2026 -
Oladapo Afolayan Blackburn Rovers Actif 120 / 132 40% 2 21.10.2026 -
Ivo Mammini Beitar Jerusalem Actif 120 / 125 40% 1 15.10.2026 -
Jack Rudoni Coventry City Actif 127 / 141 40% 1 13.10.2026 -
Ramiro Ruiz Rodríguez Atlético Tucumán Actif 110 / 124 40% 1 12.10.2026 -
Nicolò Tresoldi Club Brugge Actif 140 / 136 40% 1 11.10.2026 -
Alejo Cruz Juventud Actif 120 / 118 40% 2 08.10.2026 -
Agustín Gallo Tristán Suárez Actif 120 / 120 40% 1 08.10.2026 -
Juninho Pumas UNAM Actif 126 / 129 40% 1 07.10.2026 -
Agustín Palavecino Cruz Azul Actif 126 / 134 40% 3 06.10.2026 -
Jorge Sánchez Atlas Actif 142 / 140 40% 1 06.10.2026 -
Erik Lira Cruz Azul Actif 126 / 126 40% 2 29.09.2026 -
Ramiro Sordo Santos Laguna Actif 107 / 121 40% 1 29.09.2026 -
Sebastián Córdova Pumas UNAM Actif 125 / 119 40% 1 27.09.2026 -
Esteban da Silva Racing Actif 109 / 105 40% 1 24.09.2026 -
Esteban Obregón Montevideo City Torque Actif 108 / 123 40% 1 23.09.2026 -
Eric Ramírez Ankaragucu Actif 118 / 108 40% 1 23.09.2026 -
Ferland Mendy Real Madrid Actif 142 / 146 40% 1 21.09.2026 -
Santiago González Sporting Cristal Actif 118 / 116 40% 1 21.09.2026 -
Sebastián Moreno Patriotas Actif 92 / 99 40% 2 19.09.2026 -
Ezequiel Bullaude Santos Laguna Actif 129 / 115 40% 1 16.09.2026 -
Ismaël Bennacer Boca Juniors Actif 142 / 137 40% 1 16.09.2026 -
Wessam Abou Ali Columbus Crew Actif 141 / 139 40% 1 14.09.2026 -
Gerardo Arteaga Monterrey Actif 131 / 128 40% 1 12.09.2026 -
Carlos Álvarez Club America Actif 129 / 146 40% 1 10.09.2026 -
Adonis Preciado Tijuana Actif 113 / 120 40% 1 10.09.2026 -
Myrto Uzuni Austin FC Actif 118 / 136 40% 1 15.08.2026 -
Lewis Morgan Toronto FC Actif 125 / 131 40% 1 12.08.2026 -
Jordan Morris Seattle Sounders Actif 118 / 136 40% 1 12.08.2026 -
Bongani Khune SuperSport United Actif 118 / 119 40% 1 11.08.2026 -
Alexandr Sobolev Zenit Actif 123 / 122 40% 1 11.08.2026 -
Juan Sierra La Equidad Actif 129 / 136 40% 1 09.08.2026 -
Luis Romo Guadalajara Actif 145 / 149 40% 1 09.08.2026 -
Hugo Cuypers Monterrey Actif 136 / 136 40% 1 07.08.2026 -
James Herrera La Equidad Actif 127 / 125 40% 1 04.08.2026 -
César Inga Universitario Actif 126 / 134 40% 1 04.08.2026 -
Jesús Gallardo Toluca Actif 120 / 140 40% 1 02.08.2026 -